createdAt,value
2023-03-24T00:01:57.401Z,13.47
2023-03-24T00:04:25.252Z,13.48
2023-03-24T00:06:52.667Z,13.49
2023-03-24T00:09:20.201Z,13.50
2023-03-24T00:11:47.127Z,13.52
2023-03-24T00:14:14.178Z,13.54
2023-03-24T00:16:45.676Z,13.57
2023-03-24T00:19:15.246Z,13.56
2023-03-24T00:21:43.016Z,13.61
2023-03-24T00:24:11.803Z,13.63
2023-03-24T00:26:41.094Z,13.62
2023-03-24T00:29:13.901Z,13.64
2023-03-24T00:31:40.846Z,13.64
2023-03-24T00:34:09.311Z,13.64
2023-03-24T00:36:37.452Z,13.61
2023-03-24T00:39:06.559Z,13.59
2023-03-24T00:41:33.836Z,13.57
2023-03-24T00:44:04.042Z,13.52
2023-03-24T00:46:31.249Z,13.53
2023-03-24T00:49:05.917Z,13.51
2023-03-24T00:51:39.634Z,13.51
2023-03-24T00:54:09.549Z,13.52
2023-03-24T00:56:40.875Z,13.53
2023-03-24T00:59:10.629Z,13.53
2023-03-24T01:01:41.135Z,13.53
2023-03-24T01:04:08.605Z,13.52
2023-03-24T01:06:37.383Z,13.51
2023-03-24T01:09:36.624Z,13.50
2023-03-24T01:12:25.339Z,13.48
2023-03-24T01:15:16.856Z,13.49
2023-03-24T01:18:03.891Z,13.48
2023-03-24T01:20:59.646Z,13.46
2023-03-24T01:23:45.911Z,13.46
2023-03-24T01:26:12.879Z,13.45
2023-03-24T01:28:41.349Z,13.46
2023-03-24T01:31:10.173Z,13.49
2023-03-24T01:33:38.261Z,13.50
2023-03-24T01:36:06.817Z,13.50
2023-03-24T01:38:35.118Z,13.48
2023-03-24T01:41:02.963Z,13.48
2023-03-24T01:43:31.929Z,13.46
2023-03-24T01:46:13.378Z,13.43
2023-03-24T01:49:01.531Z,13.40
2023-03-24T01:51:34.949Z,13.41
2023-03-24T01:54:07.321Z,13.43
2023-03-24T01:56:38.675Z,13.45
2023-03-24T01:59:17.291Z,13.48
2023-03-24T02:01:45.836Z,13.51
2023-03-24T02:04:13.865Z,13.50
2023-03-24T02:06:44.209Z,13.52
2023-03-24T02:09:13.683Z,13.48
2023-03-24T02:11:41.911Z,13.51
2023-03-24T02:14:28.784Z,13.51
2023-03-24T02:17:31.068Z,13.49
2023-03-24T02:20:44.532Z,13.46
2023-03-24T02:23:25.357Z,13.46
2023-03-24T02:26:44.461Z,13.47
2023-03-24T02:29:43.489Z,13.46
2023-03-24T02:33:00.415Z,13.44
2023-03-24T02:35:56.189Z,13.43
2023-03-24T02:39:00.715Z,13.42
2023-03-24T02:41:42.651Z,13.37
2023-03-24T02:44:26.755Z,13.42
2023-03-24T02:47:01.503Z,13.40
2023-03-24T02:49:48.185Z,13.39
2023-03-24T02:52:15.078Z,13.39
2023-03-24T02:54:44.556Z,13.37
2023-03-24T02:57:24.955Z,13.38
2023-03-24T03:00:05.013Z,13.36
2023-03-24T03:02:36.121Z,13.35
2023-03-24T03:05:14.154Z,13.35
2023-03-24T03:07:44.914Z,13.34
2023-03-24T03:10:18.032Z,13.35
2023-03-24T03:12:50.639Z,13.36
2023-03-24T03:15:24.579Z,13.34
2023-03-24T03:18:41.033Z,13.33
2023-03-24T03:21:13.474Z,13.32
2023-03-24T03:24:02.547Z,13.29
2023-03-24T03:26:33.245Z,13.17
2023-03-24T03:29:06.181Z,13.23
2023-03-24T03:31:52.134Z,13.23
2023-03-24T03:34:52.977Z,13.18
2023-03-24T03:37:38.661Z,13.16
2023-03-24T03:40:25.397Z,13.10
2023-03-24T03:42:52.768Z,13.02
2023-03-24T03:45:19.933Z,12.97
2023-03-24T03:47:47.142Z,12.92
2023-03-24T03:50:14.147Z,12.79
2023-03-24T03:52:41.948Z,12.77
2023-03-24T03:55:09.622Z,12.60
2023-03-24T03:57:36.858Z,12.64
2023-03-24T04:00:12.124Z,12.62
2023-03-24T04:02:54.464Z,12.59
2023-03-24T04:05:36.316Z,12.48
2023-03-24T04:08:18.909Z,12.35
2023-03-24T04:11:14.631Z,12.25
2023-03-24T04:14:06.209Z,12.20
2023-03-24T04:17:00.957Z,12.20
2023-03-24T04:19:50.599Z,12.14
2023-03-24T04:22:40.712Z,12.13
2023-03-24T04:25:31.529Z,12.08
2023-03-24T04:28:32.129Z,12.08
2023-03-24T04:31:07.629Z,12.01
2023-03-24T04:33:46.371Z,11.87
2023-03-24T04:36:19.277Z,11.78
2023-03-24T04:38:55.109Z,11.69
2023-03-24T04:41:26.020Z,11.69
2023-03-24T04:43:57.410Z,11.67
2023-03-24T04:46:25.691Z,11.68
2023-03-24T04:48:52.603Z,11.67
2023-03-24T04:51:21.251Z,11.67
2023-03-24T04:53:48.753Z,11.65
2023-03-24T04:56:40.194Z,11.60
2023-03-24T04:59:10.221Z,11.46
2023-03-24T05:01:37.869Z,11.54
2023-03-24T05:04:06.335Z,11.51
2023-03-24T05:06:33.622Z,11.50
2023-03-24T05:09:00.611Z,11.47
2023-03-24T05:11:28.078Z,11.51
2023-03-24T05:13:55.802Z,11.56
2023-03-24T05:16:22.787Z,11.58
2023-03-24T05:18:49.765Z,11.59
2023-03-24T05:21:16.677Z,11.58
2023-03-24T05:23:43.689Z,11.60
2023-03-24T05:26:11.173Z,11.59
2023-03-24T05:28:38.098Z,11.62
2023-03-24T05:31:05.134Z,11.63
2023-03-24T05:33:34.181Z,11.64
2023-03-24T05:36:01.472Z,11.68
2023-03-24T05:38:28.394Z,11.70
2023-03-24T05:40:59.377Z,11.71
2023-03-24T05:43:26.920Z,11.77
2023-03-24T05:46:46.543Z,11.82
2023-03-24T05:49:15.291Z,11.85
2023-03-24T05:51:42.187Z,11.87
2023-03-24T05:54:09.130Z,11.85
2023-03-24T05:56:36.089Z,11.82
2023-03-24T05:59:03.417Z,11.85
2023-03-24T06:01:30.592Z,11.91
2023-03-24T06:03:57.646Z,11.94
2023-03-24T06:06:24.579Z,11.99
2023-03-24T06:08:54.824Z,12.07
2023-03-24T06:11:21.717Z,12.15
2023-03-24T06:13:49.035Z,12.21
2023-03-24T06:16:18.998Z,12.27
2023-03-24T06:18:52.681Z,12.33
2023-03-24T06:21:20.682Z,12.40
2023-03-24T06:23:57.433Z,12.50
2023-03-24T06:26:35.572Z,12.66
2023-03-24T06:29:02.538Z,12.85
2023-03-24T06:31:30.718Z,13.09
2023-03-24T06:33:58.267Z,13.31
2023-03-24T06:36:25.956Z,13.54
2023-03-24T06:38:53.956Z,13.80
2023-03-24T06:41:21.655Z,14.05
2023-03-24T06:43:48.629Z,14.24
2023-03-24T06:46:15.647Z,14.44
2023-03-24T06:48:42.589Z,14.61
2023-03-24T06:51:09.532Z,14.72
2023-03-24T06:53:38.013Z,14.78
2023-03-24T06:56:05.231Z,14.92
2023-03-24T06:58:33.923Z,15.03
2023-03-24T07:01:02.301Z,15.03
2023-03-24T07:03:29.372Z,15.05
2023-03-24T07:05:57.388Z,14.99
2023-03-24T07:08:37.512Z,14.92
2023-03-24T07:11:07.275Z,14.82
2023-03-24T07:13:34.389Z,14.79
2023-03-24T07:16:01.549Z,14.80
2023-03-24T07:18:28.812Z,14.78
2023-03-24T07:20:55.698Z,14.80
2023-03-24T07:23:22.631Z,14.88
2023-03-24T07:25:49.533Z,14.97
2023-03-24T07:28:16.550Z,15.13
2023-03-24T07:30:43.490Z,15.30
2023-03-24T07:33:12.209Z,15.36
2023-03-24T07:35:40.531Z,15.39
2023-03-24T07:38:07.912Z,15.46
2023-03-24T07:40:37.924Z,15.61
2023-03-24T07:43:06.797Z,15.72
2023-03-24T07:45:34.182Z,15.78
2023-03-24T07:48:02.345Z,15.66
2023-03-24T07:50:30.305Z,15.66
2023-03-24T07:52:59.807Z,15.63
2023-03-24T07:55:27.571Z,15.76
2023-03-24T07:57:54.748Z,15.80
2023-03-24T08:00:22.628Z,15.95
2023-03-24T08:02:52.415Z,16.09
2023-03-24T08:05:22.100Z,16.23
2023-03-24T08:07:53.757Z,16.42
2023-03-24T08:10:30.130Z,16.51
2023-03-24T08:12:58.280Z,16.59
2023-03-24T08:15:27.477Z,16.70
2023-03-24T08:17:56.704Z,16.74
2023-03-24T08:20:25.273Z,16.85
2023-03-24T08:22:54.625Z,17.01
2023-03-24T08:25:24.778Z,17.19
2023-03-24T08:27:52.328Z,17.29
2023-03-24T08:30:22.575Z,17.45
2023-03-24T08:32:52.237Z,17.60
2023-03-24T08:35:22.896Z,17.74
2023-03-24T08:37:49.781Z,17.92
2023-03-24T08:40:20.884Z,18.17
2023-03-24T08:42:49.725Z,18.31
2023-03-24T08:45:21.177Z,18.49
2023-03-24T08:47:49.551Z,18.67
2023-03-24T08:50:16.894Z,18.80
2023-03-24T08:52:44.204Z,18.92
2023-03-24T08:55:11.642Z,18.98
2023-03-24T08:57:38.560Z,19.10
2023-03-24T09:00:15.562Z,19.16
2023-03-24T09:02:45.189Z,19.26
2023-03-24T09:05:12.817Z,19.23
2023-03-24T09:07:39.778Z,19.22
2023-03-24T09:10:09.566Z,18.99
2023-03-24T09:12:37.860Z,19.01
2023-03-24T09:15:06.506Z,18.76
2023-03-24T09:17:33.695Z,18.92
2023-03-24T09:20:02.160Z,19.06
2023-03-24T09:22:29.353Z,19.27
2023-03-24T09:24:56.257Z,19.54
2023-03-24T09:27:23.621Z,19.69
2023-03-24T09:29:50.961Z,19.75
2023-03-24T09:32:17.832Z,19.75
2023-03-24T09:34:44.747Z,19.85
2023-03-24T09:37:11.668Z,19.91
2023-03-24T09:39:38.724Z,19.84
2023-03-24T09:42:07.350Z,19.80
2023-03-24T09:44:40.738Z,19.85
2023-03-24T09:47:22.500Z,19.54
2023-03-24T09:49:51.947Z,19.52
2023-03-24T09:52:35.367Z,19.68
2023-03-24T09:55:03.400Z,19.79
2023-03-24T09:57:38.119Z,19.87
2023-03-24T10:00:19.652Z,19.92
2023-03-24T10:02:47.697Z,20.07
2023-03-24T10:05:20.996Z,19.91
2023-03-24T10:07:59.924Z,19.89
2023-03-24T10:10:38.546Z,19.82
2023-03-24T10:13:30.536Z,19.73
2023-03-24T10:16:21.270Z,19.49
2023-03-24T10:19:05.538Z,19.57
2023-03-24T10:21:36.594Z,19.51
2023-03-24T10:24:33.579Z,19.99
2023-03-24T10:27:16.784Z,20.05
2023-03-24T10:29:46.749Z,20.35
2023-03-24T10:32:22.524Z,20.33
2023-03-24T10:34:56.700Z,20.45
2023-03-24T10:37:23.930Z,20.49
2023-03-24T10:39:52.204Z,20.48
2023-03-24T10:42:25.957Z,20.37
2023-03-24T10:44:53.434Z,20.33
2023-03-24T10:47:26.424Z,20.27
2023-03-24T10:49:58.043Z,20.08
2023-03-24T10:52:25.478Z,20.30
2023-03-24T10:55:03.711Z,20.71
2023-03-24T10:57:31.578Z,20.85
2023-03-24T11:00:09.994Z,21.14
2023-03-24T11:02:38.252Z,20.89
2023-03-24T11:05:19.274Z,20.96
2023-03-24T11:07:49.308Z,20.59
2023-03-24T11:10:21.236Z,20.85
2023-03-24T11:12:54.059Z,20.76
2023-03-24T11:15:26.474Z,20.62
2023-03-24T11:17:57.593Z,20.78
2023-03-24T11:20:41.689Z,20.57
2023-03-24T11:23:14.812Z,20.67
2023-03-24T11:25:47.174Z,20.14
2023-03-24T11:28:25.655Z,20.30
2023-03-24T11:30:55.397Z,20.79
2023-03-24T11:33:35.916Z,21.12
2023-03-24T11:36:30.703Z,20.97
2023-03-24T11:39:22.350Z,21.08
2023-03-24T11:42:14.331Z,21.33
2023-03-24T11:44:48.289Z,21.36
2023-03-24T11:47:36.791Z,21.35
2023-03-24T11:50:09.563Z,21.16
2023-03-24T11:52:40.712Z,21.16
2023-03-24T11:55:18.745Z,21.09
2023-03-24T11:58:28.196Z,20.97
2023-03-24T12:01:21.787Z,20.81
2023-03-24T12:04:25.108Z,20.91
2023-03-24T12:07:14.852Z,20.89
2023-03-24T12:09:50.598Z,21.00
2023-03-24T12:12:43.172Z,21.06
2023-03-24T12:15:26.760Z,21.02
2023-03-24T12:18:17.311Z,20.99
2023-03-24T12:20:48.754Z,20.91
2023-03-24T12:23:40.806Z,20.60
2023-03-24T12:26:14.823Z,20.73
2023-03-24T12:28:47.344Z,20.74
2023-03-24T12:31:33.038Z,20.76
2023-03-24T12:34:14.416Z,20.64
2023-03-24T12:36:55.604Z,20.70
2023-03-24T12:39:37.593Z,20.51
2023-03-24T12:42:20.284Z,20.31
2023-03-24T12:45:13.850Z,20.25
2023-03-24T12:47:49.492Z,20.40
2023-03-24T12:50:22.603Z,20.27
2023-03-24T12:55:46.827Z,20.19
2023-03-24T12:58:27.169Z,20.11
2023-03-24T13:01:02.001Z,20.00
2023-03-24T13:03:42.883Z,20.07
2023-03-24T13:06:18.444Z,20.18
2023-03-24T13:08:58.695Z,20.16
2023-03-24T13:11:36.530Z,20.12
2023-03-24T13:14:10.579Z,20.12
2023-03-24T13:16:40.697Z,19.96
2023-03-24T13:19:18.638Z,20.08
2023-03-24T13:21:46.728Z,20.12
2023-03-24T13:24:15.263Z,20.14
2023-03-24T13:26:51.685Z,20.11
2023-03-24T13:29:41.840Z,20.04
2023-03-24T13:32:21.736Z,19.98
2023-03-24T13:35:06.668Z,19.93
2023-03-24T13:37:39.277Z,19.92
2023-03-24T13:40:18.597Z,19.80
2023-03-24T13:42:58.725Z,19.68
2023-03-24T13:45:40.987Z,19.71
2023-03-24T13:48:27.678Z,19.69
2023-03-24T13:51:04.083Z,19.68
2023-03-24T13:53:40.590Z,19.65
2023-03-24T13:56:09.850Z,19.66
2023-03-24T13:58:58.591Z,19.60
2023-03-24T14:01:37.061Z,19.35
2023-03-24T14:04:19.140Z,19.41
2023-03-24T14:06:48.819Z,19.46
2023-03-24T14:09:23.474Z,19.47
2023-03-24T14:11:56.487Z,19.45
2023-03-24T14:14:26.120Z,19.43
2023-03-24T14:17:03.588Z,19.36
2023-03-24T14:19:39.523Z,19.24
2023-03-24T14:22:21.333Z,19.17
2023-03-24T14:24:59.802Z,19.12
2023-03-24T14:27:42.942Z,19.05
2023-03-24T14:30:19.864Z,19.02
2023-03-24T14:32:49.459Z,19.03
2023-03-24T14:35:32.346Z,19.04
2023-03-24T14:38:05.328Z,19.09
2023-03-24T14:40:41.935Z,18.97
2023-03-24T14:43:24.996Z,19.12
2023-03-24T14:46:23.028Z,19.21
2023-03-24T14:49:17.228Z,19.23
2023-03-24T14:52:08.827Z,19.29
2023-03-24T14:54:42.288Z,19.35
2023-03-24T14:57:20.516Z,19.35
2023-03-24T15:00:01.260Z,19.33
2023-03-24T15:02:28.486Z,19.29
2023-03-24T15:05:14.378Z,19.25
2023-03-24T15:07:42.413Z,19.17
2023-03-24T15:10:20.250Z,19.11
2023-03-24T15:12:48.729Z,19.03
2023-03-24T15:15:25.933Z,18.89
2023-03-24T15:17:53.076Z,18.87
2023-03-24T15:20:29.920Z,18.79
2023-03-24T15:22:57.118Z,18.65
2023-03-24T15:25:29.225Z,18.65
2023-03-24T15:27:57.953Z,18.64
2023-03-24T15:30:25.725Z,18.61
2023-03-24T15:32:53.135Z,18.58
2023-03-24T15:35:23.019Z,18.56
2023-03-24T15:37:57.276Z,18.54
2023-03-24T15:40:26.983Z,18.48
2023-03-24T15:42:57.442Z,18.39
2023-03-24T15:45:35.548Z,18.32
2023-03-24T15:48:15.043Z,18.26
2023-03-24T15:50:57.291Z,18.20
2023-03-24T15:53:32.256Z,18.09
2023-03-24T15:56:26.313Z,17.99
2023-03-24T15:58:57.338Z,17.86
2023-03-24T16:01:36.453Z,17.66
2023-03-24T16:04:34.498Z,17.55
2023-03-24T16:07:01.465Z,17.35
2023-03-24T16:09:38.215Z,17.16
2023-03-24T16:12:11.010Z,17.10
2023-03-24T16:14:39.048Z,17.00
2023-03-24T16:17:06.220Z,16.94
2023-03-24T16:19:33.280Z,16.89
2023-03-24T16:22:00.201Z,16.67
2023-03-24T16:24:27.092Z,16.50
2023-03-24T16:26:54.099Z,16.39
2023-03-24T16:29:23.306Z,16.27
2023-03-24T16:31:53.119Z,16.22
2023-03-24T16:34:21.748Z,16.20
2023-03-24T16:36:51.133Z,16.13
2023-03-24T16:39:23.763Z,16.11
2023-03-24T16:41:51.281Z,16.03
2023-03-24T16:44:18.420Z,15.93
2023-03-24T16:46:46.977Z,15.95
2023-03-24T16:49:18.814Z,15.86
2023-03-24T16:51:47.348Z,15.83
2023-03-24T16:54:14.411Z,15.72
2023-03-24T16:56:41.586Z,15.51
2023-03-24T16:59:09.388Z,15.58
2023-03-24T17:01:41.833Z,15.49
2023-03-24T17:04:19.581Z,15.37
2023-03-24T17:06:50.979Z,15.27
2023-03-24T17:09:18.030Z,15.05
2023-03-24T17:11:52.361Z,15.06
2023-03-24T17:14:19.578Z,14.99
2023-03-24T17:16:49.407Z,14.94
2023-03-24T17:19:19.253Z,14.80
2023-03-24T17:22:06.882Z,14.76
2023-03-24T17:24:36.858Z,14.74
2023-03-24T17:27:16.944Z,14.56
2023-03-24T17:29:43.868Z,14.48
2023-03-24T17:32:11.398Z,14.39
2023-03-24T17:34:38.434Z,14.22
2023-03-24T17:37:06.244Z,14.09
2023-03-24T17:39:33.234Z,13.98
2023-03-24T17:42:01.642Z,13.81
2023-03-24T17:44:29.066Z,13.91
2023-03-24T17:46:56.091Z,13.88
2023-03-24T17:49:22.967Z,13.89
2023-03-24T17:51:49.908Z,13.79
2023-03-24T17:54:19.377Z,13.83
2023-03-24T17:56:46.874Z,13.86
2023-03-24T17:59:13.951Z,13.86
2023-03-24T18:01:40.911Z,13.81
2023-03-24T18:04:10.149Z,13.76
2023-03-24T18:06:38.762Z,13.75
2023-03-24T18:09:05.808Z,13.74
2023-03-24T18:11:32.936Z,13.71
2023-03-24T18:13:59.882Z,13.69
2023-03-24T18:16:30.318Z,13.67
2023-03-24T18:18:57.923Z,13.64
2023-03-24T18:21:24.937Z,13.64
2023-03-24T18:23:51.939Z,13.57
2023-03-24T18:26:19.173Z,13.57
2023-03-24T18:28:46.383Z,13.55
2023-03-24T18:31:16.662Z,13.54
2023-03-24T18:33:46.255Z,13.56
2023-03-24T18:36:16.803Z,13.49
2023-03-24T18:38:44.567Z,13.57
2023-03-24T18:41:14.157Z,13.57
2023-03-24T18:43:41.542Z,13.55
2023-03-24T18:46:10.422Z,13.55
2023-03-24T18:48:38.182Z,13.50
2023-03-24T18:51:06.306Z,13.42
2023-03-24T18:53:36.552Z,13.47
2023-03-24T18:56:05.679Z,13.45
2023-03-24T18:58:33.916Z,13.45
2023-03-24T19:01:09.560Z,13.13
2023-03-24T19:03:38.592Z,13.43
2023-03-24T19:06:07.427Z,13.38
2023-03-24T19:08:38.071Z,13.37
2023-03-24T19:11:05.639Z,13.32
2023-03-24T19:13:32.990Z,13.28
2023-03-24T19:16:00.494Z,13.12
2023-03-24T19:18:27.682Z,13.25
2023-03-24T19:20:56.544Z,13.18
2023-03-24T19:23:24.836Z,13.17
2023-03-24T19:25:55.243Z,13.16
2023-03-24T19:28:29.349Z,13.19
2023-03-24T19:30:57.641Z,13.13
2023-03-24T19:33:24.559Z,13.10
2023-03-24T19:35:52.044Z,13.15
2023-03-24T19:38:24.099Z,13.16
2023-03-24T19:40:54.482Z,13.10
2023-03-24T19:43:25.944Z,13.15
2023-03-24T19:45:55.195Z,13.12
2023-03-24T19:48:23.426Z,13.10
2023-03-24T19:50:52.901Z,13.12
2023-03-24T19:53:20.792Z,13.08
2023-03-24T19:55:48.371Z,13.08
2023-03-24T19:58:16.045Z,13.02
2023-03-24T20:00:43.049Z,13.05
2023-03-24T20:03:10.227Z,13.07
2023-03-24T20:05:37.606Z,13.08
2023-03-24T20:08:04.817Z,13.04
2023-03-24T20:10:31.781Z,13.07
2023-03-24T20:12:58.676Z,13.06
2023-03-24T20:15:29.411Z,13.04
2023-03-24T20:17:56.926Z,13.04
2023-03-24T20:20:25.198Z,13.05
2023-03-24T20:22:52.436Z,13.05
2023-03-24T20:25:20.151Z,13.06
2023-03-24T20:27:48.026Z,13.04
2023-03-24T20:30:17.205Z,13.03
2023-03-24T20:32:44.409Z,13.01
2023-03-24T20:35:12.651Z,13.00
2023-03-24T20:37:40.289Z,12.99
2023-03-24T20:40:10.245Z,12.89
2023-03-24T20:42:38.705Z,12.95
2023-03-24T20:45:08.499Z,12.95
2023-03-24T20:47:37.208Z,12.90
2023-03-24T20:50:06.519Z,12.89
2023-03-24T20:52:35.153Z,12.89
2023-03-24T20:55:06.467Z,12.86
2023-03-24T20:57:34.013Z,12.84
2023-03-24T21:00:01.645Z,12.82
2023-03-24T21:02:28.863Z,12.83
2023-03-24T21:04:57.379Z,12.82
2023-03-24T21:07:26.066Z,12.83
2023-03-24T21:09:53.366Z,12.86
2023-03-24T21:12:21.656Z,12.81
2023-03-24T21:14:49.359Z,12.57
2023-03-24T21:17:18.752Z,12.86
2023-03-24T21:19:47.080Z,12.88
2023-03-24T21:22:17.197Z,12.90
2023-03-24T21:24:44.087Z,12.87
2023-03-24T21:27:11.017Z,12.87
2023-03-24T21:29:38.292Z,12.86
2023-03-24T21:32:05.420Z,12.88
2023-03-24T21:34:32.535Z,12.88
2023-03-24T21:37:01.790Z,12.89
2023-03-24T21:39:29.117Z,12.89
2023-03-24T21:41:56.093Z,12.88
2023-03-24T21:44:23.543Z,12.85
2023-03-24T21:46:50.505Z,12.84
2023-03-24T21:49:19.195Z,12.83
2023-03-24T21:51:46.948Z,12.82
2023-03-24T21:54:15.252Z,12.84
2023-03-24T21:56:42.435Z,12.84
2023-03-24T21:59:11.448Z,12.86
2023-03-24T22:01:38.622Z,12.87
2023-03-24T22:04:08.848Z,12.88
2023-03-24T22:06:38.241Z,12.86
2023-03-24T22:09:07.350Z,12.84
2023-03-24T22:11:35.803Z,12.87
2023-03-24T22:14:04.049Z,12.86
2023-03-24T22:16:31.394Z,12.84
2023-03-24T22:18:58.839Z,12.82
2023-03-24T22:21:25.901Z,12.81
2023-03-24T22:23:53.591Z,12.82
2023-03-24T22:26:21.317Z,12.81
2023-03-24T22:28:48.928Z,12.82
2023-03-24T22:31:17.860Z,12.82
2023-03-24T22:33:47.750Z,12.84
2023-03-24T22:36:14.798Z,12.85
2023-03-24T22:38:42.727Z,12.90
2023-03-24T22:41:12.746Z,12.89
2023-03-24T22:43:41.190Z,12.90
2023-03-24T22:46:09.224Z,12.91
2023-03-24T22:48:36.536Z,12.92
2023-03-24T22:51:03.943Z,12.94
2023-03-24T22:53:30.839Z,12.91
2023-03-24T22:55:57.776Z,12.90
2023-03-24T22:58:24.701Z,12.89
2023-03-24T23:00:55.589Z,12.90
2023-03-24T23:03:22.838Z,12.90
2023-03-24T23:05:49.896Z,12.91
2023-03-24T23:08:17.076Z,12.89
2023-03-24T23:10:45.551Z,12.92
2023-03-24T23:13:13.534Z,12.93
2023-03-24T23:15:42.800Z,12.92
2023-03-24T23:18:10.922Z,12.92
2023-03-24T23:20:38.010Z,12.90
2023-03-24T23:23:06.821Z,12.85
2023-03-24T23:25:34.945Z,12.83
2023-03-24T23:28:01.922Z,12.85
2023-03-24T23:30:28.894Z,12.85
2023-03-24T23:32:57.775Z,12.84
2023-03-24T23:35:24.980Z,12.83
2023-03-24T23:37:52.181Z,12.80
2023-03-24T23:40:19.479Z,12.83
2023-03-24T23:42:47.810Z,12.77
2023-03-24T23:45:18.298Z,12.75
2023-03-24T23:47:49.643Z,12.77
2023-03-24T23:50:18.307Z,12.75
2023-03-24T23:52:45.325Z,12.67
2023-03-24T23:55:14.503Z,12.78
2023-03-24T23:57:42.651Z,12.76
